createdAt,value
2018-02-10T00:02:07.154Z,29.07
2018-02-10T00:04:36.018Z,26.27
2018-02-10T00:07:04.868Z,27.87
2018-02-10T00:09:33.708Z,24.90
2018-02-10T00:12:02.660Z,26.93
2018-02-10T00:14:31.554Z,28.23
2018-02-10T00:17:00.392Z,27.77
2018-02-10T00:19:29.907Z,28.33
2018-02-10T00:21:58.757Z,29.13
2018-02-10T00:24:27.644Z,30.23
2018-02-10T00:26:56.523Z,26.90
2018-02-10T00:29:25.372Z,28.33
2018-02-10T00:31:54.216Z,30.60
2018-02-10T00:34:23.098Z,30.77
2018-02-10T00:36:52.002Z,27.90
2018-02-10T00:39:20.832Z,29.00
2018-02-10T00:41:49.763Z,29.10
2018-02-10T00:44:18.619Z,29.30
2018-02-10T00:46:47.492Z,27.83
2018-02-10T00:49:16.368Z,30.50
2018-02-10T00:51:45.210Z,28.50
2018-02-10T00:54:14.054Z,30.83
2018-02-10T00:56:42.950Z,29.07
2018-02-10T00:59:12.620Z,30.27
2018-02-10T01:01:41.487Z,28.47
2018-02-10T01:04:10.360Z,27.23
2018-02-10T01:06:39.214Z,29.07
2018-02-10T01:09:08.050Z,28.13
2018-02-10T01:11:36.954Z,27.23
2018-02-10T01:14:05.790Z,27.87
2018-02-10T01:16:34.654Z,27.87
2018-02-10T01:19:03.548Z,28.23
2018-02-10T01:21:32.386Z,28.50
2018-02-10T01:24:01.253Z,27.87
2018-02-10T01:26:30.262Z,29.03
2018-02-10T01:28:59.094Z,27.90
2018-02-10T01:31:27.980Z,27.93
2018-02-10T01:33:57.516Z,24.57
2018-02-10T01:36:26.399Z,26.53
2018-02-10T01:38:55.220Z,26.40
2018-02-10T01:41:24.112Z,28.20
2018-02-10T01:43:53.026Z,28.20
2018-02-10T01:46:21.940Z,27.57
2018-02-10T01:48:51.012Z,28.43
2018-02-10T01:51:19.912Z,26.80
2018-02-10T01:53:48.790Z,25.73
2018-02-10T01:56:17.953Z,26.90
2018-02-10T01:58:46.774Z,28.80
2018-02-10T02:01:15.648Z,25.60
2018-02-10T02:03:44.512Z,26.47
2018-02-10T02:06:13.350Z,26.30
2018-02-10T02:08:42.216Z,24.63
2018-02-10T02:11:11.102Z,25.20
2018-02-10T02:13:39.994Z,24.87
2018-02-10T02:16:08.946Z,24.83
2018-02-10T02:18:37.774Z,24.33
2018-02-10T02:21:06.624Z,24.43
2018-02-10T02:23:35.502Z,24.27
2018-02-10T02:26:04.342Z,25.53
2018-02-10T02:28:33.251Z,25.13
2018-02-10T02:31:02.162Z,23.73
2018-02-10T02:33:31.014Z,24.57
2018-02-10T02:35:59.860Z,18.43
2018-02-10T02:38:28.731Z,23.07
2018-02-10T02:40:57.573Z,23.70
2018-02-10T02:43:26.407Z,21.07
2018-02-10T02:45:55.263Z,21.53
2018-02-10T02:48:24.804Z,22.27
2018-02-10T02:50:53.652Z,21.03
2018-02-10T02:53:22.541Z,22.50
2018-02-10T02:55:51.386Z,22.63
2018-02-10T02:58:20.218Z,20.87
2018-02-10T03:00:49.074Z,21.27
2018-02-10T03:03:17.938Z,21.17
2018-02-10T03:05:46.770Z,21.73
2018-02-10T03:08:15.632Z,21.83
2018-02-10T03:10:45.104Z,22.70
2018-02-10T03:13:13.982Z,23.37
2018-02-10T03:15:42.883Z,23.30
2018-02-10T03:18:11.729Z,23.43
2018-02-10T03:20:40.612Z,20.73
2018-02-10T03:23:09.475Z,21.30
2018-02-10T03:25:38.338Z,22.73
2018-02-10T03:28:07.242Z,22.37
2018-02-10T03:30:36.110Z,20.97
2018-02-10T03:33:04.960Z,21.37
2018-02-10T03:35:34.208Z,21.13
2018-02-10T03:38:04.216Z,21.10
2018-02-10T03:40:33.050Z,20.67
2018-02-10T03:43:01.884Z,20.00
2018-02-10T03:45:31.989Z,21.70
2018-02-10T03:48:00.838Z,21.83
2018-02-10T03:50:29.740Z,21.10
2018-02-10T03:52:58.609Z,22.47
2018-02-10T03:55:27.426Z,22.33
2018-02-10T03:57:56.523Z,20.27
2018-02-10T04:00:25.379Z,20.63
2018-02-10T04:02:54.274Z,21.70
2018-02-10T04:05:23.102Z,21.47
2018-02-10T04:07:52.662Z,21.73
2018-02-10T04:10:21.506Z,19.97
2018-02-10T04:12:50.338Z,20.60
2018-02-10T04:15:19.842Z,22.57
2018-02-10T04:17:49.524Z,21.23
2018-02-10T04:20:18.380Z,22.00
2018-02-10T04:22:47.790Z,22.47
2018-02-10T04:25:16.632Z,22.70
2018-02-10T04:27:45.486Z,25.73
2018-02-10T04:30:14.356Z,23.83
2018-02-10T04:32:43.192Z,24.17
2018-02-10T04:35:12.014Z,23.07
2018-02-10T04:37:40.938Z,22.43
2018-02-10T04:40:10.164Z,21.70
2018-02-10T04:42:39.954Z,21.80
2018-02-10T04:45:08.834Z,22.53
2018-02-10T04:47:37.670Z,23.17
2018-02-10T04:50:06.546Z,22.73
2018-02-10T04:52:36.734Z,22.20
2018-02-10T04:55:05.570Z,22.37
2018-02-10T04:57:34.404Z,22.70
2018-02-10T05:00:03.288Z,23.20
2018-02-10T05:02:32.122Z,22.13
2018-02-10T05:05:01.587Z,22.30
2018-02-10T05:07:30.703Z,24.03
2018-02-10T05:09:59.570Z,22.77
2018-02-10T05:12:28.765Z,23.30
2018-02-10T05:14:57.633Z,22.80
2018-02-10T05:17:26.492Z,23.33
2018-02-10T05:19:55.349Z,23.97
2018-02-10T05:22:24.179Z,24.77
2018-02-10T05:24:53.032Z,23.93
2018-02-10T05:27:21.894Z,26.50
2018-02-10T05:29:50.769Z,25.23
2018-02-10T05:32:19.609Z,24.47
2018-02-10T05:34:48.466Z,24.37
2018-02-10T05:37:17.344Z,25.63
2018-02-10T05:39:46.371Z,25.77
2018-02-10T05:42:15.250Z,23.77
2018-02-10T05:44:44.883Z,24.57
2018-02-10T05:47:13.827Z,25.23
2018-02-10T05:49:42.709Z,25.50
2018-02-10T05:52:11.619Z,24.37
2018-02-10T05:54:40.451Z,25.23
2018-02-10T05:57:09.980Z,24.60
2018-02-10T05:59:38.862Z,24.20
2018-02-10T06:02:07.693Z,24.17
2018-02-10T06:04:36.563Z,22.03
2018-02-10T06:07:05.415Z,26.10
2018-02-10T06:09:34.259Z,27.00
2018-02-10T06:12:03.815Z,25.17
2018-02-10T06:14:32.678Z,25.57
2018-02-10T06:17:01.532Z,25.20
2018-02-10T06:19:30.523Z,25.40
2018-02-10T06:21:59.359Z,23.47
2018-02-10T06:24:28.199Z,27.10
2018-02-10T06:26:57.053Z,23.50
2018-02-10T06:29:26.191Z,25.50
2018-02-10T06:31:55.026Z,25.33
2018-02-10T06:34:24.762Z,24.70
2018-02-10T06:36:53.598Z,26.07
2018-02-10T06:39:22.979Z,25.07
2018-02-10T06:41:51.923Z,24.83
2018-02-10T06:44:20.761Z,25.67
2018-02-10T06:46:49.645Z,24.50
2018-02-10T06:49:18.535Z,24.20
2018-02-10T06:51:47.381Z,24.73
2018-02-10T06:54:16.219Z,24.20
2018-02-10T06:56:45.384Z,22.63
2018-02-10T06:59:14.411Z,23.30
2018-02-10T07:01:43.351Z,24.17
2018-02-10T07:04:12.215Z,23.20
2018-02-10T07:06:41.517Z,22.50
2018-02-10T07:09:11.791Z,21.87
2018-02-10T07:11:40.768Z,22.77
2018-02-10T07:14:09.621Z,23.40
2018-02-10T07:16:38.475Z,20.40
2018-02-10T07:19:07.468Z,21.47
2018-02-10T07:21:36.346Z,22.90
2018-02-10T07:24:05.253Z,24.20
2018-02-10T07:26:34.863Z,24.00
2018-02-10T07:29:03.765Z,24.33
2018-02-10T07:31:33.331Z,24.87
2018-02-10T07:34:02.217Z,24.07
2018-02-10T07:36:31.091Z,24.40
2018-02-10T07:38:59.929Z,24.60
2018-02-10T07:41:29.739Z,27.07
2018-02-10T07:43:58.609Z,25.43
2018-02-10T07:46:27.453Z,27.73
2018-02-10T07:48:56.297Z,30.03
2018-02-10T07:51:25.129Z,29.43
2018-02-10T07:53:53.980Z,26.37
2018-02-10T07:56:22.889Z,29.10
2018-02-10T07:58:51.755Z,29.30
2018-02-10T08:01:20.660Z,28.90
2018-02-10T08:03:50.539Z,24.37
2018-02-10T08:06:19.399Z,26.73
2018-02-10T08:08:48.277Z,25.10
2018-02-10T08:11:17.667Z,28.03
2018-02-10T08:13:46.515Z,25.63
2018-02-10T08:16:15.351Z,24.00
2018-02-10T08:18:44.249Z,28.10
2018-02-10T08:21:13.091Z,26.87
2018-02-10T08:23:42.443Z,26.80
2018-02-10T08:26:11.306Z,24.83
2018-02-10T08:28:40.149Z,26.23
2018-02-10T08:31:10.387Z,25.97
2018-02-10T08:33:39.481Z,27.80
2018-02-10T08:36:08.335Z,25.87
2018-02-10T08:38:37.187Z,26.97
2018-02-10T08:41:06.054Z,26.57
2018-02-10T08:43:34.944Z,25.67
2018-02-10T08:46:03.794Z,26.50
2018-02-10T08:48:33.259Z,27.60
2018-02-10T08:51:02.107Z,27.33
2018-02-10T08:53:30.951Z,29.00
2018-02-10T08:55:59.796Z,26.80
2018-02-10T08:58:29.487Z,27.43
2018-02-10T09:00:58.413Z,28.47
2018-02-10T09:03:27.261Z,28.03
2018-02-10T09:05:56.475Z,29.47
2018-02-10T09:08:25.357Z,30.30
2018-02-10T09:10:54.801Z,30.30
2018-02-10T09:13:23.650Z,27.80
2018-02-10T09:15:53.283Z,28.13
2018-02-10T09:18:22.872Z,38.00
2018-02-10T09:20:52.060Z,27.43
2018-02-10T09:23:20.969Z,27.13
2018-02-10T09:25:50.152Z,28.17
2018-02-10T09:28:19.727Z,23.13
2018-02-10T09:30:48.608Z,21.27
2018-02-10T09:33:18.066Z,21.07
2018-02-10T09:35:47.245Z,21.70
2018-02-10T09:38:16.131Z,19.00
2018-02-10T09:40:45.500Z,19.33
2018-02-10T09:43:14.363Z,18.60
2018-02-10T09:45:43.277Z,16.77
2018-02-10T09:48:12.109Z,16.27
2018-02-10T09:50:40.985Z,14.77
2018-02-10T09:53:10.475Z,15.23
2018-02-10T09:55:39.784Z,12.70
2018-02-10T09:58:09.404Z,12.83
2018-02-10T10:00:38.806Z,12.10
2018-02-10T10:03:09.901Z,10.00
2018-02-10T10:05:38.769Z,9.47
2018-02-10T10:08:07.615Z,10.17
2018-02-10T10:10:36.546Z,8.70
2018-02-10T10:13:05.596Z,8.03
2018-02-10T10:15:34.427Z,6.87
2018-02-10T10:18:03.530Z,7.17
2018-02-10T10:20:32.758Z,7.13
2018-02-10T10:23:01.615Z,6.40
2018-02-10T10:25:30.447Z,6.50
2018-02-10T10:27:59.312Z,6.63
2018-02-10T10:30:28.148Z,6.23
2018-02-10T10:32:56.992Z,5.57
2018-02-10T10:35:25.897Z,6.40
2018-02-10T10:37:54.765Z,5.87
2018-02-10T10:40:23.698Z,6.63
2018-02-10T10:42:52.587Z,6.63
2018-02-10T10:45:21.413Z,6.63
2018-02-10T10:47:50.262Z,6.00
2018-02-10T10:50:19.103Z,7.27
2018-02-10T10:52:47.956Z,5.90
2018-02-10T10:55:16.836Z,5.93
2018-02-10T10:57:45.669Z,5.63
2018-02-10T11:00:15.485Z,6.27
2018-02-10T11:02:44.384Z,6.00
2018-02-10T11:05:13.206Z,6.83
2018-02-10T11:10:05.879Z,6.53
2018-02-10T11:12:34.769Z,6.37
2018-02-10T11:15:03.612Z,7.03
2018-02-10T11:17:32.488Z,5.80
2018-02-10T11:20:01.340Z,6.73
2018-02-10T11:22:30.194Z,5.60
2018-02-10T11:24:59.060Z,6.13
2018-02-10T11:27:27.899Z,5.13
2018-02-10T11:29:57.079Z,4.83
2018-02-10T11:32:26.026Z,5.13
2018-02-10T11:34:54.883Z,4.97
2018-02-10T11:37:23.722Z,5.20
2018-02-10T11:39:52.582Z,4.50
2018-02-10T11:42:21.410Z,4.70
2018-02-10T11:44:50.253Z,4.63
2018-02-10T11:47:19.190Z,4.87
2018-02-10T11:49:48.050Z,5.07
2018-02-10T11:52:16.878Z,4.63
2018-02-10T11:54:45.732Z,4.97
2018-02-10T11:57:14.570Z,4.80
2018-02-10T11:59:43.411Z,5.87
2018-02-10T12:02:15.212Z,5.70
2018-02-10T12:04:44.038Z,6.10
2018-02-10T12:07:12.906Z,7.07
2018-02-10T12:09:41.774Z,6.83
2018-02-10T12:12:10.638Z,10.43
2018-02-10T12:14:39.488Z,6.27
2018-02-10T12:17:08.352Z,5.43
2018-02-10T12:19:38.140Z,5.77
2018-02-10T12:22:07.022Z,4.93
2018-02-10T12:24:37.622Z,4.60
2018-02-10T12:27:06.546Z,4.07
2018-02-10T12:29:35.382Z,4.13
2018-02-10T12:32:04.315Z,4.47
2018-02-10T12:34:33.180Z,3.77
2018-02-10T12:37:02.013Z,3.60
2018-02-10T12:39:31.206Z,4.10
2018-02-10T12:42:00.076Z,3.80
2018-02-10T12:44:30.704Z,3.50
2018-02-10T12:46:59.588Z,5.33
2018-02-10T12:49:31.108Z,3.63
2018-02-10T12:52:00.380Z,4.10
2018-02-10T12:54:29.572Z,3.63
2018-02-10T12:56:58.420Z,4.33
2018-02-10T12:59:27.294Z,4.27
2018-02-10T13:01:56.142Z,4.67
2018-02-10T13:04:25.032Z,5.80
2018-02-10T13:06:53.920Z,5.93
2018-02-10T13:09:22.764Z,6.20
2018-02-10T13:11:52.468Z,6.67
2018-02-10T13:14:21.325Z,6.10
2018-02-10T13:16:50.190Z,6.07
2018-02-10T13:19:19.292Z,6.40
2018-02-10T13:21:48.239Z,5.60
2018-02-10T13:24:17.093Z,5.10
2018-02-10T13:26:46.010Z,4.60
2018-02-10T13:29:15.658Z,4.07
2018-02-10T13:31:44.762Z,4.47
2018-02-10T13:34:14.361Z,4.13
2018-02-10T13:36:43.894Z,4.43
2018-02-10T13:39:12.760Z,4.30
2018-02-10T13:41:41.859Z,4.37
2018-02-10T13:44:10.764Z,4.60
2018-02-10T13:46:43.414Z,5.03
2018-02-10T13:49:12.303Z,4.83
2018-02-10T13:51:41.136Z,4.53
2018-02-10T13:54:10.387Z,4.50
2018-02-10T13:56:39.540Z,4.23
2018-02-10T13:59:08.395Z,3.70
2018-02-10T14:01:37.249Z,3.40
2018-02-10T14:04:06.117Z,4.33
2018-02-10T14:06:37.488Z,3.60
2018-02-10T14:09:06.370Z,3.70
2018-02-10T14:11:35.221Z,3.63
2018-02-10T14:14:04.042Z,4.07
2018-02-10T14:16:32.914Z,4.10
2018-02-10T14:19:01.745Z,3.57
2018-02-10T14:21:30.626Z,3.40
2018-02-10T14:23:59.615Z,3.57
2018-02-10T14:26:29.634Z,3.10
2018-02-10T14:28:59.295Z,3.37
2018-02-10T14:31:28.129Z,3.37
2018-02-10T14:33:57.017Z,3.90
2018-02-10T14:36:25.903Z,3.10
2018-02-10T14:38:54.735Z,3.53
2018-02-10T14:41:24.158Z,3.67
2018-02-10T14:43:53.062Z,3.70
2018-02-10T14:46:22.442Z,4.03
2018-02-10T14:48:51.292Z,3.80
2018-02-10T14:51:44.515Z,4.23
2018-02-10T14:54:14.290Z,3.97
2018-02-10T14:56:43.131Z,4.93
2018-02-10T14:59:12.331Z,5.13
2018-02-10T15:01:41.166Z,4.80
2018-02-10T15:04:10.039Z,3.83
2018-02-10T15:06:39.714Z,4.60
2018-02-10T15:09:08.575Z,5.20
2018-02-10T15:11:37.406Z,4.83
2018-02-10T15:14:07.177Z,4.57
2018-02-10T15:16:36.166Z,4.60
2018-02-10T15:19:05.949Z,4.67
2018-02-10T15:21:35.790Z,5.00
2018-02-10T15:24:08.754Z,5.13
2018-02-10T15:26:37.654Z,5.50
2018-02-10T15:29:06.485Z,4.17
2018-02-10T15:31:54.929Z,6.10
2018-02-10T15:34:29.631Z,7.27
2018-02-10T15:36:58.840Z,5.03
2018-02-10T15:39:27.698Z,5.00
2018-02-10T15:41:56.583Z,4.87
2018-02-10T15:44:25.508Z,4.43
2018-02-10T15:46:54.375Z,4.10
2018-02-10T15:49:23.437Z,3.70
2018-02-10T15:51:52.311Z,3.90
2018-02-10T15:54:21.264Z,3.93
2018-02-10T15:56:50.111Z,3.70
2018-02-10T15:59:20.033Z,4.10
2018-02-10T16:01:49.040Z,3.43
2018-02-10T16:04:17.871Z,3.90
2018-02-10T16:06:46.748Z,4.30
2018-02-10T16:09:15.599Z,4.07
2018-02-10T16:11:44.431Z,4.27
2018-02-10T16:14:14.117Z,4.60
2018-02-10T16:16:43.013Z,4.33
2018-02-10T16:19:11.804Z,4.40
2018-02-10T16:21:40.719Z,4.40
2018-02-10T16:24:09.597Z,5.53
2018-02-10T16:26:38.459Z,5.20
2018-02-10T16:29:07.377Z,5.30
2018-02-10T16:31:36.247Z,4.73
2018-02-10T16:34:05.155Z,4.70
2018-02-10T16:36:34.074Z,4.27
2018-02-10T16:39:03.738Z,4.33
2018-02-10T16:41:32.592Z,4.10
2018-02-10T16:44:01.481Z,4.23
2018-02-10T16:46:30.563Z,3.83
2018-02-10T16:49:00.773Z,3.73
2018-02-10T16:51:29.637Z,3.63
2018-02-10T16:53:58.499Z,3.90
2018-02-10T16:56:27.355Z,3.90
2018-02-10T16:58:56.241Z,4.20
2018-02-10T17:01:25.365Z,4.17
2018-02-10T17:03:54.199Z,5.23
2018-02-10T17:06:23.311Z,5.10
2018-02-10T17:08:52.146Z,6.20
2018-02-10T17:11:21.061Z,5.87
2018-02-10T17:13:49.963Z,4.90
2018-02-10T17:16:19.116Z,4.43
2018-02-10T17:18:47.971Z,4.13
2018-02-10T17:21:16.823Z,4.23
2018-02-10T17:23:45.648Z,3.90
2018-02-10T17:26:14.527Z,4.10
2018-02-10T17:28:43.365Z,3.80
2018-02-10T17:31:12.249Z,4.07
2018-02-10T17:33:41.442Z,3.57
2018-02-10T17:36:11.491Z,3.33
2018-02-10T17:38:40.342Z,3.80
2018-02-10T17:41:09.213Z,4.00
2018-02-10T17:43:38.105Z,5.03
2018-02-10T17:46:06.970Z,4.00
2018-02-10T17:48:35.827Z,3.60
2018-02-10T17:51:05.464Z,4.23
2018-02-10T17:53:34.751Z,4.10
2018-02-10T17:56:03.637Z,4.03
2018-02-10T17:58:32.472Z,4.37
2018-02-10T18:01:01.344Z,3.70
2018-02-10T18:03:30.171Z,3.67
2018-02-10T18:05:59.327Z,3.23
2018-02-10T18:08:28.456Z,3.57
2018-02-10T18:10:57.315Z,3.30
2018-02-10T18:13:26.455Z,3.57
2018-02-10T18:15:55.611Z,3.70
2018-02-10T18:18:25.143Z,2.93
2018-02-10T18:20:54.330Z,3.60
2018-02-10T18:23:23.474Z,3.90
2018-02-10T18:25:52.309Z,3.10
2018-02-10T18:28:21.138Z,3.43
2018-02-10T18:30:50.005Z,3.03
2018-02-10T18:33:20.406Z,3.17
2018-02-10T18:35:49.970Z,3.27
2018-02-10T18:38:19.202Z,3.97
2018-02-10T18:40:48.056Z,3.30
2018-02-10T18:43:17.173Z,3.90
2018-02-10T18:45:46.040Z,3.30
2018-02-10T18:48:14.978Z,3.37
2018-02-10T18:50:43.813Z,3.80
2018-02-10T18:53:12.692Z,3.47
2018-02-10T18:55:42.142Z,2.73
2018-02-10T18:58:11.288Z,2.37
2018-02-10T19:00:40.196Z,3.60
2018-02-10T19:03:09.048Z,2.93
2018-02-10T19:05:37.914Z,4.03
2018-02-10T19:08:07.068Z,3.57
2018-02-10T19:10:35.952Z,3.97
2018-02-10T19:13:05.064Z,6.00
2018-02-10T19:15:34.258Z,4.03
2018-02-10T19:18:03.151Z,4.20
2018-02-10T19:23:06.012Z,4.20
2018-02-10T19:25:36.474Z,4.57
2018-02-10T19:28:05.361Z,4.07
2018-02-10T19:30:34.204Z,5.23
2018-02-10T19:33:03.316Z,5.73
2018-02-10T19:35:32.240Z,4.03
2018-02-10T19:38:01.424Z,3.40
2018-02-10T19:40:30.374Z,4.00
2018-02-10T19:42:59.956Z,3.30
2018-02-10T19:45:28.802Z,3.50
2018-02-10T19:47:57.642Z,4.40
2018-02-10T19:50:27.474Z,3.43
2018-02-10T19:52:56.304Z,3.90
2018-02-10T19:55:25.245Z,4.23
2018-02-10T19:57:54.087Z,4.60
2018-02-10T20:00:33.008Z,5.43
2018-02-10T20:03:01.870Z,5.20
2018-02-10T20:05:30.799Z,8.13
2018-02-10T20:07:59.651Z,8.80
2018-02-10T20:10:28.472Z,9.50
2018-02-10T20:12:57.344Z,10.33
2018-02-10T20:15:27.059Z,11.00
2018-02-10T20:17:55.964Z,11.20
2018-02-10T20:20:24.860Z,9.00
2018-02-10T20:22:53.724Z,10.23
2018-02-10T20:25:22.574Z,8.03
2018-02-10T20:27:52.146Z,8.23
2018-02-10T20:30:20.986Z,8.60
2018-02-10T20:32:49.854Z,8.63
2018-02-10T20:35:18.713Z,8.27
2018-02-10T20:37:47.542Z,7.13
2018-02-10T20:40:16.444Z,5.90
2018-02-10T20:42:45.282Z,7.37
2018-02-10T20:45:14.124Z,7.13
2018-02-10T20:47:43.022Z,6.30
2018-02-10T20:50:11.858Z,6.50
2018-02-10T20:52:40.716Z,5.87
2018-02-10T20:55:09.569Z,5.97
2018-02-10T20:57:39.288Z,6.43
2018-02-10T21:00:08.175Z,6.37
2018-02-10T21:02:37.014Z,6.80
2018-02-10T21:05:05.895Z,17.63
2018-02-10T21:07:35.704Z,9.20
2018-02-10T21:10:04.976Z,10.70
2018-02-10T21:12:33.817Z,5.03
2018-02-10T21:15:02.776Z,6.47
2018-02-10T21:17:31.648Z,6.50
2018-02-10T21:20:00.812Z,4.63
2018-02-10T21:22:29.641Z,5.80
2018-02-10T21:24:58.798Z,4.63
2018-02-10T21:27:28.544Z,3.10
2018-02-10T21:29:57.378Z,5.00
2018-02-10T21:32:26.212Z,4.73
2018-02-10T21:34:55.090Z,3.77
2018-02-10T21:37:23.956Z,5.50
2018-02-10T21:39:52.899Z,4.77
2018-02-10T21:42:21.735Z,5.07
2018-02-10T21:44:50.615Z,5.67
2018-02-10T21:47:19.480Z,4.77
2018-02-10T21:49:48.319Z,5.03
2018-02-10T21:52:17.152Z,3.03
2018-02-10T21:54:46.035Z,4.93
2018-02-10T21:57:14.864Z,2.63
2018-02-10T21:59:47.852Z,4.53
2018-02-10T22:02:16.688Z,3.63
2018-02-10T22:04:45.529Z,4.23
2018-02-10T22:07:14.388Z,4.10
2018-02-10T22:09:44.148Z,4.40
2018-02-10T22:12:12.992Z,4.83
2018-02-10T22:14:41.851Z,4.63
2018-02-10T22:17:10.676Z,4.17
2018-02-10T22:19:39.516Z,3.77
2018-02-10T22:22:09.234Z,5.23
2018-02-10T22:24:38.480Z,3.73
2018-02-10T22:27:07.351Z,3.73
2018-02-10T22:29:36.211Z,4.40
2018-02-10T22:32:05.054Z,3.87
2018-02-10T22:34:33.885Z,4.90
2018-02-10T22:37:03.436Z,4.43
2018-02-10T22:39:32.300Z,3.83
2018-02-10T22:42:01.166Z,4.83
2018-02-10T22:44:30.014Z,4.93
2018-02-10T22:46:58.950Z,5.53
2018-02-10T22:49:27.836Z,4.67
2018-02-10T22:51:56.670Z,4.57
2018-02-10T22:54:25.518Z,4.17
2018-02-10T22:56:54.376Z,3.93
2018-02-10T22:59:23.270Z,5.83
2018-02-10T23:01:52.180Z,5.00
2018-02-10T23:04:21.040Z,4.67
2018-02-10T23:06:50.492Z,6.40
2018-02-10T23:09:19.322Z,5.20
2018-02-10T23:11:48.230Z,5.37
2018-02-10T23:14:17.320Z,5.40
2018-02-10T23:16:46.810Z,5.70
2018-02-10T23:19:16.400Z,7.03
2018-02-10T23:21:45.228Z,5.53
2018-02-10T23:24:14.056Z,4.80
2018-02-10T23:26:42.916Z,4.37
2018-02-10T23:29:11.746Z,5.90
2018-02-10T23:31:40.696Z,3.87
2018-02-10T23:34:09.552Z,5.60
2018-02-10T23:36:39.182Z,4.90
2018-02-10T23:39:08.338Z,6.47
2018-02-10T23:41:37.234Z,5.00
2018-02-10T23:44:06.312Z,5.60
2018-02-10T23:46:35.881Z,5.03
2018-02-10T23:49:04.774Z,5.53
2018-02-10T23:51:33.616Z,5.83
2018-02-10T23:54:02.460Z,6.60
2018-02-10T23:56:31.332Z,5.30
2018-02-10T23:59:00.180Z,5.60
